sensor_id;sensor_type;location;lat;lon;timestamp;pressure;altitude;pressure_sealevel;temperature;humidity
71778;BME280;59609;52.430;4.668;2023-02-20T00:00:24;102439.91;;;8.87;100.00
71778;BME280;59609;52.430;4.668;2023-02-20T00:02:50;102432.00;;;8.82;100.00
71778;BME280;59609;52.430;4.668;2023-02-20T00:05:16;102423.69;;;8.95;100.00
71778;BME280;59609;52.430;4.668;2023-02-20T00:07:41;102427.97;;;8.99;100.00
71778;BME280;59609;52.430;4.668;2023-02-20T00:10:07;102438.22;;;8.97;100.00
71778;BME280;59609;52.430;4.668;2023-02-20T00:12:33;102425.34;;;8.97;100.00
71778;BME280;59609;52.430;4.668;2023-02-20T00:14:58;102419.72;;;8.99;100.00
71778;BME280;59609;52.430;4.668;2023-02-20T00:17:23;102415.69;;;8.92;100.00
71778;BME280;59609;52.430;4.668;2023-02-20T00:19:49;102418.19;;;8.95;100.00
71778;BME280;59609;52.430;4.668;2023-02-20T00:22:14;102407.34;;;8.93;100.00
71778;BME280;59609;52.430;4.668;2023-02-20T00:24:40;102408.56;;;8.89;100.00
71778;BME280;59609;52.430;4.668;2023-02-20T00:27:06;102403.41;;;8.85;100.00
71778;BME280;59609;52.430;4.668;2023-02-20T00:29:31;102413.91;;;8.91;100.00
71778;BME280;59609;52.430;4.668;2023-02-20T00:31:57;102400.16;;;8.79;100.00
71778;BME280;59609;52.430;4.668;2023-02-20T00:34:25;102406.94;;;8.87;100.00
71778;BME280;59609;52.430;4.668;2023-02-20T00:36:51;102411.53;;;8.86;100.00
71778;BME280;59609;52.430;4.668;2023-02-20T00:39:17;102405.66;;;8.79;100.00
71778;BME280;59609;52.430;4.668;2023-02-20T00:41:44;102406.13;;;8.73;100.00
71778;BME280;59609;52.430;4.668;2023-02-20T00:44:10;102388.91;;;8.83;100.00
71778;BME280;59609;52.430;4.668;2023-02-20T00:46:35;102380.13;;;8.77;100.00
71778;BME280;59609;52.430;4.668;2023-02-20T00:49:00;102373.00;;;8.75;100.00
71778;BME280;59609;52.430;4.668;2023-02-20T00:51:26;102367.88;;;8.70;100.00
71778;BME280;59609;52.430;4.668;2023-02-20T00:53:52;102356.66;;;8.73;100.00
71778;BME280;59609;52.430;4.668;2023-02-20T00:56:17;102344.66;;;8.74;100.00
71778;BME280;59609;52.430;4.668;2023-02-20T00:58:43;102344.88;;;8.71;100.00
71778;BME280;59609;52.430;4.668;2023-02-20T01:01:08;102338.28;;;8.74;100.00
71778;BME280;59609;52.430;4.668;2023-02-20T01:03:33;102337.66;;;8.70;100.00
71778;BME280;59609;52.430;4.668;2023-02-20T01:05:59;102321.19;;;8.70;100.00
71778;BME280;59609;52.430;4.668;2023-02-20T01:08:24;102337.03;;;8.67;100.00
71778;BME280;59609;52.430;4.668;2023-02-20T01:10:50;102324.78;;;8.71;100.00
71778;BME280;59609;52.430;4.668;2023-02-20T01:13:16;102332.91;;;8.72;100.00
71778;BME280;59609;52.430;4.668;2023-02-20T01:15:41;102326.13;;;8.65;100.00
71778;BME280;59609;52.430;4.668;2023-02-20T01:18:09;102304.06;;;8.67;100.00
71778;BME280;59609;52.430;4.668;2023-02-20T01:20:34;102300.03;;;8.60;100.00
71778;BME280;59609;52.430;4.668;2023-02-20T01:23:00;102302.63;;;8.61;100.00
71778;BME280;59609;52.430;4.668;2023-02-20T01:25:25;102309.34;;;8.57;100.00
71778;BME280;59609;52.430;4.668;2023-02-20T01:27:51;102304.00;;;8.56;100.00
71778;BME280;59609;52.430;4.668;2023-02-20T01:30:16;102303.59;;;8.49;100.00
71778;BME280;59609;52.430;4.668;2023-02-20T01:32:44;102310.59;;;8.53;100.00
71778;BME280;59609;52.430;4.668;2023-02-20T01:35:10;102314.44;;;8.51;100.00
71778;BME280;59609;52.430;4.668;2023-02-20T01:37:35;102303.47;;;8.51;100.00
71778;BME280;59609;52.430;4.668;2023-02-20T01:40:01;102284.59;;;8.46;100.00
71778;BME280;59609;52.430;4.668;2023-02-20T01:42:29;102287.63;;;8.54;100.00
71778;BME280;59609;52.430;4.668;2023-02-20T01:45:17;102279.84;;;8.48;100.00
71778;BME280;59609;52.430;4.668;2023-02-20T01:47:44;102281.38;;;8.52;100.00
71778;BME280;59609;52.430;4.668;2023-02-20T01:50:11;102285.59;;;8.45;100.00
71778;BME280;59609;52.430;4.668;2023-02-20T01:52:38;102272.50;;;8.49;100.00
71778;BME280;59609;52.430;4.668;2023-02-20T01:57:34;102277.00;;;8.50;100.00
71778;BME280;59609;52.430;4.668;2023-02-20T02:00:07;102272.50;;;8.49;100.00
71778;BME280;59609;52.430;4.668;2023-02-20T02:02:34;102301.72;;;8.50;100.00
71778;BME280;59609;52.430;4.668;2023-02-20T02:05:02;102281.38;;;8.52;100.00
71778;BME280;59609;52.430;4.668;2023-02-20T02:07:28;102292.88;;;8.57;100.00
71778;BME280;59609;52.430;4.668;2023-02-20T02:10:10;102290.13;;;8.57;100.00
71778;BME280;59609;52.430;4.668;2023-02-20T02:12:37;102279.13;;;8.57;100.00
71778;BME280;59609;52.430;4.668;2023-02-20T02:15:08;102266.25;;;8.47;100.00
71778;BME280;59609;52.430;4.668;2023-02-20T02:23:15;102270.91;;;8.57;100.00
71778;BME280;59609;52.430;4.668;2023-02-20T02:42:55;102260.38;;;8.51;100.00
71778;BME280;59609;52.430;4.668;2023-02-20T02:45:39;102264.91;;;8.52;100.00
71778;BME280;59609;52.430;4.668;2023-02-20T02:48:27;102256.41;;;8.55;100.00
71778;BME280;59609;52.430;4.668;2023-02-20T02:51:04;102258.03;;;8.58;100.00
71778;BME280;59609;52.430;4.668;2023-02-20T02:53:32;102254.41;;;8.57;100.00
71778;BME280;59609;52.430;4.668;2023-02-20T02:55:57;102243.81;;;8.53;100.00
71778;BME280;59609;52.430;4.668;2023-02-20T02:58:43;102234.44;;;8.55;100.00
71778;BME280;59609;52.430;4.668;2023-02-20T03:01:08;102233.47;;;8.56;100.00
71778;BME280;59609;52.430;4.668;2023-02-20T03:03:37;102234.72;;;8.63;100.00
71778;BME280;59609;52.430;4.668;2023-02-20T03:06:07;102234.09;;;8.60;100.00
71778;BME280;59609;52.430;4.668;2023-02-20T03:08:50;102227.97;;;8.56;100.00
71778;BME280;59609;52.430;4.668;2023-02-20T03:11:23;102228.59;;;8.60;100.00
71778;BME280;59609;52.430;4.668;2023-02-20T03:16:52;102206.00;;;8.67;100.00
71778;BME280;59609;52.430;4.668;2023-02-20T03:19:35;102212.25;;;8.69;100.00
71778;BME280;59609;52.430;4.668;2023-02-20T03:22:04;102210.50;;;8.68;100.00
71778;BME280;59609;52.430;4.668;2023-02-20T03:24:32;102196.66;;;8.70;100.00
71778;BME280;59609;52.430;4.668;2023-02-20T03:27:18;102195.78;;;8.69;100.00
71778;BME280;59609;52.430;4.668;2023-02-20T03:29:44;102205.78;;;8.70;100.00
71778;BME280;59609;52.430;4.668;2023-02-20T03:32:12;102203.03;;;8.70;100.00
71778;BME280;59609;52.430;4.668;2023-02-20T03:34:59;102203.78;;;8.72;100.00
71778;BME280;59609;52.430;4.668;2023-02-20T03:37:44;102196.75;;;8.68;100.00
71778;BME280;59609;52.430;4.668;2023-02-20T03:40:30;102196.91;;;8.67;100.00
71778;BME280;59609;52.430;4.668;2023-02-20T03:43:19;102195.53;;;8.72;100.00
71778;BME280;59609;52.430;4.668;2023-02-20T03:46:18;102182.53;;;8.74;100.00
71778;BME280;59609;52.430;4.668;2023-02-20T03:48:51;102191.56;;;8.76;100.00
71778;BME280;59609;52.430;4.668;2023-02-20T03:51:18;102194.91;;;8.69;100.00
71778;BME280;59609;52.430;4.668;2023-02-20T03:54:03;102193.78;;;8.71;100.00
71778;BME280;59609;52.430;4.668;2023-02-20T03:56:41;102184.78;;;8.69;100.00
71778;BME280;59609;52.430;4.668;2023-02-20T03:59:17;102197.00;;;8.65;100.00
71778;BME280;59609;52.430;4.668;2023-02-20T04:01:45;102183.81;;;8.70;100.00
71778;BME280;59609;52.430;4.668;2023-02-20T04:04:17;102193.53;;;8.74;100.00
71778;BME280;59609;52.430;4.668;2023-02-20T04:06:45;102194.91;;;8.69;100.00
71778;BME280;59609;52.430;4.668;2023-02-20T04:09:20;102182.53;;;8.74;100.00
71778;BME280;59609;52.430;4.668;2023-02-20T04:11:58;102183.56;;;8.73;100.00
71778;BME280;59609;52.430;4.668;2023-02-20T04:14:25;102182.78;;;8.71;100.00
71778;BME280;59609;52.430;4.668;2023-02-20T04:16:57;102179.94;;;8.73;100.00
71778;BME280;59609;52.430;4.668;2023-02-20T04:19:26;102184.66;;;8.71;100.00
71778;BME280;59609;52.430;4.668;2023-02-20T04:21:54;102169.69;;;8.75;100.00
71778;BME280;59609;52.430;4.668;2023-02-20T04:24:52;102160.94;;;8.70;100.00
71778;BME280;59609;52.430;4.668;2023-02-20T04:27:20;102172.19;;;8.67;100.00
71778;BME280;59609;52.430;4.668;2023-02-20T04:29:46;102177.78;;;8.65;100.00
71778;BME280;59609;52.430;4.668;2023-02-20T04:32:12;102163.06;;;8.66;100.00
71778;BME280;59609;52.430;4.668;2023-02-20T04:34:37;102173.03;;;8.56;100.00
71778;BME280;59609;52.430;4.668;2023-02-20T04:37:12;102178.53;;;8.67;100.00
71778;BME280;59609;52.430;4.668;2023-02-20T04:39:38;102181.16;;;8.69;100.00
71778;BME280;59609;52.430;4.668;2023-02-20T04:42:03;102186.03;;;8.65;100.00
71778;BME280;59609;52.430;4.668;2023-02-20T04:44:29;102195.78;;;8.69;100.00
71778;BME280;59609;52.430;4.668;2023-02-20T04:47:00;102188.13;;;8.62;100.00
71778;BME280;59609;52.430;4.668;2023-02-20T04:49:26;102198.78;;;8.66;100.00
71778;BME280;59609;52.430;4.668;2023-02-20T04:51:51;102190.53;;;8.66;100.00
71778;BME280;59609;52.430;4.668;2023-02-20T04:54:17;102202.25;;;8.68;100.00
71778;BME280;59609;52.430;4.668;2023-02-20T04:56:42;102193.38;;;8.65;100.00
71778;BME280;59609;52.430;4.668;2023-02-20T04:59:08;102210.75;;;8.65;100.00
71778;BME280;59609;52.430;4.668;2023-02-20T05:01:33;102206.13;;;8.66;100.00
71778;BME280;59609;52.430;4.668;2023-02-20T05:03:59;102210.34;;;8.59;100.00
71778;BME280;59609;52.430;4.668;2023-02-20T05:06:24;102202.22;;;8.57;100.00
71778;BME280;59609;52.430;4.668;2023-02-20T05:08:50;102207.50;;;8.60;100.00
71778;BME280;59609;52.430;4.668;2023-02-20T05:11:16;102197.84;;;8.55;100.00
71778;BME280;59609;52.430;4.668;2023-02-20T05:13:41;102206.09;;;8.55;100.00
71778;BME280;59609;52.430;4.668;2023-02-20T05:16:07;102202.47;;;8.54;100.00
71778;BME280;59609;52.430;4.668;2023-02-20T05:18:32;102212.72;;;8.52;100.00
71778;BME280;59609;52.430;4.668;2023-02-20T05:20:58;102201.38;;;8.57;100.00
71778;BME280;59609;52.430;4.668;2023-02-20T05:23:42;102203.72;;;8.50;100.00
71778;BME280;59609;52.430;4.668;2023-02-20T05:26:11;102205.09;;;8.56;100.00
71778;BME280;59609;52.430;4.668;2023-02-20T05:28:37;102197.22;;;8.51;100.00
71778;BME280;59609;52.430;4.668;2023-02-20T05:31:04;102196.53;;;8.60;100.00
71778;BME280;59609;52.430;4.668;2023-02-20T05:33:30;102196.22;;;8.52;100.00
71778;BME280;59609;52.430;4.668;2023-02-20T05:35:55;102186.38;;;8.50;100.00
71778;BME280;59609;52.430;4.668;2023-02-20T05:38:20;102184.25;;;8.53;100.00
71778;BME280;59609;52.430;4.668;2023-02-20T05:40:46;102182.25;;;8.55;100.00
71778;BME280;59609;52.430;4.668;2023-02-20T05:43:11;102178.53;;;8.56;100.00
71778;BME280;59609;52.430;4.668;2023-02-20T05:45:37;102170.00;;;8.48;100.00
71778;BME280;59609;52.430;4.668;2023-02-20T05:48:02;102175.50;;;8.48;100.00
71778;BME280;59609;52.430;4.668;2023-02-20T05:50:27;102177.00;;;8.52;100.00
71778;BME280;59609;52.430;4.668;2023-02-20T05:52:53;102169.50;;;8.54;100.00
71778;BME280;59609;52.430;4.668;2023-02-20T05:55:18;102172.88;;;8.47;100.00
71778;BME280;59609;52.430;4.668;2023-02-20T05:57:44;102168.47;;;8.44;100.00
71778;BME280;59609;52.430;4.668;2023-02-20T06:00:09;102173.34;;;8.41;100.00
71778;BME280;59609;52.430;4.668;2023-02-20T06:02:35;102165.88;;;8.43;100.00
71778;BME280;59609;52.430;4.668;2023-02-20T06:05:02;102177.25;;;8.49;100.00
71778;BME280;59609;52.430;4.668;2023-02-20T06:07:29;102165.97;;;8.41;100.00
71778;BME280;59609;52.430;4.668;2023-02-20T06:09:55;102176.63;;;8.46;100.00
71778;BME280;59609;52.430;4.668;2023-02-20T06:12:20;102184.47;;;8.39;100.00
71778;BME280;59609;52.430;4.668;2023-02-20T06:14:46;102176.38;;;8.49;100.00
71778;BME280;59609;52.430;4.668;2023-02-20T06:17:11;102191.22;;;8.46;100.00
71778;BME280;59609;52.430;4.668;2023-02-20T06:19:36;102191.97;;;8.48;100.00
71778;BME280;59609;52.430;4.668;2023-02-20T06:22:02;102191.22;;;8.46;100.00
71778;BME280;59609;52.430;4.668;2023-02-20T06:24:27;102193.72;;;8.49;100.00
71778;BME280;59609;52.430;4.668;2023-02-20T06:26:53;102183.72;;;8.48;100.00
71778;BME280;59609;52.430;4.668;2023-02-20T06:29:19;102191.22;;;8.46;100.00
71778;BME280;59609;52.430;4.668;2023-02-20T06:31:45;102179.13;;;8.49;100.00
71778;BME280;59609;52.430;4.668;2023-02-20T06:34:10;102176.50;;;8.47;100.00
71778;BME280;59609;52.430;4.668;2023-02-20T06:36:38;102181.22;;;8.45;100.00
71778;BME280;59609;52.430;4.668;2023-02-20T06:39:05;102177.84;;;8.42;100.00
71778;BME280;59609;52.430;4.668;2023-02-20T06:41:31;102168.03;;;8.50;100.00
71778;BME280;59609;52.430;4.668;2023-02-20T06:43:57;102180.97;;;8.48;100.00
71778;BME280;59609;52.430;4.668;2023-02-20T06:46:23;102170.63;;;8.52;100.00
71778;BME280;59609;52.430;4.668;2023-02-20T06:48:51;102169.38;;;8.45;100.00
71778;BME280;59609;52.430;4.668;2023-02-20T06:51:19;102166.91;;;8.53;100.00
71778;BME280;59609;52.430;4.668;2023-02-20T06:53:45;102173.75;;;8.58;100.00
71778;BME280;59609;52.430;4.668;2023-02-20T06:56:14;102171.50;;;8.52;100.00
71778;BME280;59609;52.430;4.668;2023-02-20T06:58:43;102169.25;;;8.57;100.00
71778;BME280;59609;52.430;4.668;2023-02-20T07:01:08;102162.44;;;8.63;100.00
71778;BME280;59609;52.430;4.668;2023-02-20T07:03:33;102167.91;;;8.63;100.00
71778;BME280;59609;52.430;4.668;2023-02-20T07:05:59;102165.03;;;8.64;100.00
71778;BME280;59609;52.430;4.668;2023-02-20T07:08:24;102168.56;;;8.66;100.00
71778;BME280;59609;52.430;4.668;2023-02-20T07:10:49;102189.16;;;8.72;100.00
71778;BME280;59609;52.430;4.668;2023-02-20T07:13:18;102167.81;;;8.75;100.00
71778;BME280;59609;52.430;4.668;2023-02-20T07:15:43;102181.66;;;8.74;100.00
71778;BME280;59609;52.430;4.668;2023-02-20T07:18:08;102185.91;;;8.78;100.00
71778;BME280;59609;52.430;4.668;2023-02-20T07:20:34;102186.44;;;8.83;100.00
71778;BME280;59609;52.430;4.668;2023-02-20T07:22:59;102198.06;;;8.87;100.00
71778;BME280;59609;52.430;4.668;2023-02-20T07:25:24;102199.16;;;8.84;100.00
71778;BME280;59609;52.430;4.668;2023-02-20T07:27:50;102194.28;;;8.88;100.00
71778;BME280;59609;52.430;4.668;2023-02-20T07:30:15;102194.78;;;8.82;100.00
71778;BME280;59609;52.430;4.668;2023-02-20T07:32:40;102195.56;;;8.95;100.00
71778;BME280;59609;52.430;4.668;2023-02-20T07:35:06;102203.81;;;8.84;100.00
71778;BME280;59609;52.430;4.668;2023-02-20T07:37:32;102193.44;;;8.87;100.00
71778;BME280;59609;52.430;4.668;2023-02-20T07:39:57;102197.56;;;8.93;100.00
71778;BME280;59609;52.430;4.668;2023-02-20T07:42:22;102198.56;;;9.03;100.00
71778;BME280;59609;52.430;4.668;2023-02-20T07:44:48;102194.31;;;8.99;100.00
71778;BME280;59609;52.430;4.668;2023-02-20T07:47:14;102187.69;;;9.01;100.00
71778;BME280;59609;52.430;4.668;2023-02-20T07:49:39;102203.09;;;9.04;100.00
71778;BME280;59609;52.430;4.668;2023-02-20T07:52:05;102197.56;;;9.15;100.00
71778;BME280;59609;52.430;4.668;2023-02-20T07:54:30;102194.72;;;9.16;100.00
71778;BME280;59609;52.430;4.668;2023-02-20T07:56:55;102207.06;;;9.11;100.00
71778;BME280;59609;52.430;4.668;2023-02-20T07:59:21;102205.81;;;9.15;100.00
71778;BME280;59609;52.430;4.668;2023-02-20T08:01:47;102209.31;;;9.06;100.00
71778;BME280;59609;52.430;4.668;2023-02-20T08:04:12;102192.56;;;9.09;100.00
71778;BME280;59609;52.430;4.668;2023-02-20T08:06:38;102199.69;;;9.00;100.00
71778;BME280;59609;52.430;4.668;2023-02-20T08:09:03;102201.19;;;9.04;100.00
71778;BME280;59609;52.430;4.668;2023-02-20T08:11:32;102201.19;;;9.15;100.00
71778;BME280;59609;52.430;4.668;2023-02-20T08:13:58;102202.06;;;9.05;100.00
71778;BME280;59609;52.430;4.668;2023-02-20T08:16:23;102209.59;;;9.14;100.00
71778;BME280;59609;52.430;4.668;2023-02-20T08:18:51;102194.97;;;9.13;100.00
71778;BME280;59609;52.430;4.668;2023-02-20T08:21:17;102200.19;;;9.05;100.00
71778;BME280;59609;52.430;4.668;2023-02-20T08:23:42;102178.31;;;9.15;100.00
71778;BME280;59609;52.430;4.668;2023-02-20T08:26:08;102179.94;;;9.17;100.00
71778;BME280;59609;52.430;4.668;2023-02-20T08:28:33;102180.31;;;9.24;100.00
71778;BME280;59609;52.430;4.668;2023-02-20T08:30:59;102187.72;;;9.23;100.00
71778;BME280;59609;52.430;4.668;2023-02-20T08:33:25;102192.81;;;9.28;100.00
71778;BME280;59609;52.430;4.668;2023-02-20T08:35:50;102190.31;;;9.25;100.00
71778;BME280;59609;52.430;4.668;2023-02-20T08:38:37;102187.56;;;9.25;100.00
71778;BME280;59609;52.430;4.668;2023-02-20T08:41:04;102174.56;;;9.38;100.00
71778;BME280;59609;52.430;4.668;2023-02-20T08:43:32;102170.94;;;9.38;100.00
71778;BME280;59609;52.430;4.668;2023-02-20T08:45:57;102160.28;;;9.44;100.00
71778;BME280;59609;52.430;4.668;2023-02-20T08:48:23;102179.22;;;9.26;100.00
71778;BME280;59609;52.430;4.668;2023-02-20T08:50:48;102174.09;;;9.33;100.00
71778;BME280;59609;52.430;4.668;2023-02-20T08:53:14;102174.09;;;9.33;100.00
71778;BME280;59609;52.430;4.668;2023-02-20T08:55:40;102164.94;;;9.32;100.00
71778;BME280;59609;52.430;4.668;2023-02-20T08:58:05;102173.31;;;9.42;100.00
71778;BME280;59609;52.430;4.668;2023-02-20T09:00:31;102190.06;;;9.39;100.00
71778;BME280;59609;52.430;4.668;2023-02-20T09:02:56;102193.84;;;9.27;100.00
71778;BME280;59609;52.430;4.668;2023-02-20T09:05:22;102189.19;;;9.39;100.00
71778;BME280;59609;52.430;4.668;2023-02-20T09:07:48;102197.69;;;9.24;100.00
71778;BME280;59609;52.430;4.668;2023-02-20T09:10:15;102175.19;;;9.42;100.00
71778;BME280;59609;52.430;4.668;2023-02-20T09:12:41;102202.09;;;9.27;100.00
71778;BME280;59609;52.430;4.668;2023-02-20T09:15:08;102182.84;;;9.27;100.00
71778;BME280;59609;52.430;4.668;2023-02-20T09:17:33;102206.31;;;9.31;100.00
71778;BME280;59609;52.430;4.668;2023-02-20T09:19:59;102176.22;;;9.41;100.00
71778;BME280;59609;52.430;4.668;2023-02-20T09:22:25;102175.28;;;9.51;100.00
71778;BME280;59609;52.430;4.668;2023-02-20T09:24:51;102154.56;;;9.25;100.00
71778;BME280;59609;52.430;4.668;2023-02-20T09:27:17;102163.97;;;9.34;100.00
71778;BME280;59609;52.430;4.668;2023-02-20T09:29:43;102175.31;;;9.40;100.00
71778;BME280;59609;52.430;4.668;2023-02-20T09:32:09;102171.84;;;9.27;100.00
71778;BME280;59609;52.430;4.668;2023-02-20T09:34:35;102169.81;;;9.40;100.00
71778;BME280;59609;52.430;4.668;2023-02-20T09:37:00;102184.69;;;9.60;100.00
71778;BME280;59609;52.430;4.668;2023-02-20T09:39:26;102166.78;;;9.54;100.00
71778;BME280;59609;52.430;4.668;2023-02-20T09:42:10;102197.94;;;9.44;100.00
71778;BME280;59609;52.430;4.668;2023-02-20T09:47:41;102170.78;;;9.61;100.00
71778;BME280;59609;52.430;4.668;2023-02-20T09:50:14;102177.03;;;9.52;100.00
71778;BME280;59609;52.430;4.668;2023-02-20T09:52:44;102200.41;;;9.58;100.00
71778;BME280;59609;52.430;4.668;2023-02-20T09:55:14;102180.53;;;9.65;100.00
71778;BME280;59609;52.430;4.668;2023-02-20T09:57:47;102141.22;;;9.74;100.00
71778;BME280;59609;52.430;4.668;2023-02-20T10:00:35;102157.00;;;9.72;100.00
71778;BME280;59609;52.430;4.668;2023-02-20T10:03:18;102172.41;;;9.64;100.00
71778;BME280;59609;52.430;4.668;2023-02-20T10:05:45;102158.94;;;9.93;100.00
71778;BME280;59609;52.430;4.668;2023-02-20T10:08:14;102164.69;;;9.90;100.00
71778;BME280;59609;52.430;4.668;2023-02-20T10:10:40;102165.88;;;9.76;100.00
71778;BME280;59609;52.430;4.668;2023-02-20T10:15:56;102168.59;;;9.87;100.00
71778;BME280;59609;52.430;4.668;2023-02-20T10:18:39;102163.22;;;9.86;100.00
71778;BME280;59609;52.430;4.668;2023-02-20T10:21:16;102161.06;;;9.89;100.00
71778;BME280;59609;52.430;4.668;2023-02-20T10:23:50;102147.38;;;9.99;100.00
71778;BME280;59609;52.430;4.668;2023-02-20T10:26:24;102155.22;;;10.14;100.00
71778;BME280;59609;52.430;4.668;2023-02-20T10:28:51;102147.88;;;10.04;100.00
71778;BME280;59609;52.430;4.668;2023-02-20T10:31:39;102160.97;;;10.11;100.00
71778;BME280;59609;52.430;4.668;2023-02-20T10:34:15;102170.03;;;10.02;100.00
71778;BME280;59609;52.430;4.668;2023-02-20T10:36:46;102153.13;;;10.07;100.00
71778;BME280;59609;52.430;4.668;2023-02-20T10:39:16;102147.09;;;10.13;100.00
71778;BME280;59609;52.430;4.668;2023-02-20T10:41:54;102157.34;;;10.11;100.00
71778;BME280;59609;52.430;4.668;2023-02-20T10:44:32;102162.03;;;10.31;100.00
71778;BME280;59609;52.430;4.668;2023-02-20T10:47:11;102156.34;;;10.12;100.00
71778;BME280;59609;52.430;4.668;2023-02-20T10:52:34;102178.03;;;10.16;100.00
71778;BME280;59609;52.430;4.668;2023-02-20T10:55:14;102179.09;;;10.25;100.00
71778;BME280;59609;52.430;4.668;2023-02-20T10:57:48;102168.31;;;10.33;100.00
71778;BME280;59609;52.430;4.668;2023-02-20T11:00:19;102181.50;;;10.18;100.00
71778;BME280;59609;52.430;4.668;2023-02-20T11:02:52;102191.88;;;10.26;100.00
71778;BME280;59609;52.430;4.668;2023-02-20T11:05:22;102215.25;;;10.31;100.00
71778;BME280;59609;52.430;4.668;2023-02-20T11:07:49;102213.59;;;10.40;100.00
71778;BME280;59609;52.430;4.668;2023-02-20T11:10:15;102214.78;;;10.26;100.00
71778;BME280;59609;52.430;4.668;2023-02-20T11:12:45;102196.69;;;10.02;100.00
71778;BME280;59609;52.430;4.668;2023-02-20T11:15:15;102172.75;;;10.13;100.00
71778;BME280;59609;52.430;4.668;2023-02-20T11:17:43;102169.91;;;10.36;100.00
71778;BME280;59609;52.430;4.668;2023-02-20T11:23:00;102182.56;;;10.59;100.00
71778;BME280;59609;52.430;4.668;2023-02-20T11:27:59;102183.84;;;10.34;100.00
71778;BME280;59609;52.430;4.668;2023-02-20T11:30:39;102216.63;;;10.37;100.00
71778;BME280;59609;52.430;4.668;2023-02-20T11:33:17;102166.84;;;10.18;100.00
71778;BME280;59609;52.430;4.668;2023-02-20T11:35:45;102173.28;;;10.60;100.00
71778;BME280;59609;52.430;4.668;2023-02-20T11:38:26;102179.84;;;10.48;100.00
71778;BME280;59609;52.430;4.668;2023-02-20T11:43:21;102155.75;;;10.40;100.00
71778;BME280;59609;52.430;4.668;2023-02-20T11:45:48;102163.84;;;10.21;100.00
71778;BME280;59609;52.430;4.668;2023-02-20T11:48:16;102154.81;;;10.30;100.00
71778;BME280;59609;52.430;4.668;2023-02-20T11:53:26;102183.97;;;10.32;100.00
71778;BME280;59609;52.430;4.668;2023-02-20T11:56:12;102168.03;;;10.36;100.00
71778;BME280;59609;52.430;4.668;2023-02-20T11:58:39;102169.03;;;10.35;100.00
71778;BME280;59609;52.430;4.668;2023-02-20T12:01:05;102168.84;;;10.27;100.00
71778;BME280;59609;52.430;4.668;2023-02-20T12:03:33;102154.13;;;10.38;100.00
71778;BME280;59609;52.430;4.668;2023-02-20T12:06:01;102151.97;;;10.41;100.00
71778;BME280;59609;52.430;4.668;2023-02-20T12:11:10;102147.72;;;10.78;100.00
71778;BME280;59609;52.430;4.668;2023-02-20T12:13:40;102151.06;;;11.03;100.00
71778;BME280;59609;52.430;4.668;2023-02-20T12:18:58;102152.88;;;10.93;100.00
71778;BME280;59609;52.430;4.668;2023-02-20T12:21:47;102148.31;;;10.82;100.00
71778;BME280;59609;52.430;4.668;2023-02-20T12:35:58;102138.09;;;10.94;100.00
71778;BME280;59609;52.430;4.668;2023-02-20T12:38:49;102138.47;;;11.10;100.00
71778;BME280;59609;52.430;4.668;2023-02-20T12:49:32;102125.97;;;11.15;99.12
71778;BME280;59609;52.430;4.668;2023-02-20T13:00:21;102125.31;;;10.93;99.74
71778;BME280;59609;52.430;4.668;2023-02-20T13:02:54;102103.44;;;11.01;99.62
71778;BME280;59609;52.430;4.668;2023-02-20T13:05:25;102108.63;;;10.94;99.68
71778;BME280;59609;52.430;4.668;2023-02-20T13:07:56;102118.06;;;11.31;98.43
71778;BME280;59609;52.430;4.668;2023-02-20T13:10:29;102112.75;;;11.09;98.50
71778;BME280;59609;52.430;4.668;2023-02-20T13:12:56;102104.69;;;10.87;99.33
71778;BME280;59609;52.430;4.668;2023-02-20T13:20:31;102113.63;;;11.10;99.59
71778;BME280;59609;52.430;4.668;2023-02-20T13:23:23;102112.69;;;11.30;98.65
71778;BME280;59609;52.430;4.668;2023-02-20T13:25:51;102121.03;;;11.09;98.99
71778;BME280;59609;52.430;4.668;2023-02-20T13:31:05;102128.72;;;11.06;99.44
71778;BME280;59609;52.430;4.668;2023-02-20T13:33:32;102122.97;;;10.88;99.71
71778;BME280;59609;52.430;4.668;2023-02-20T13:35:58;102119.31;;;10.57;100.00
71778;BME280;59609;52.430;4.668;2023-02-20T13:38:27;102114.75;;;10.47;100.00
71778;BME280;59609;52.430;4.668;2023-02-20T13:53:39;102098.84;;;10.50;100.00
71778;BME280;59609;52.430;4.668;2023-02-20T13:56:14;102091.78;;;10.57;100.00
71778;BME280;59609;52.430;4.668;2023-02-20T13:58:39;102091.34;;;10.41;100.00
71778;BME280;59609;52.430;4.668;2023-02-20T14:01:05;102095.03;;;10.51;100.00
71778;BME280;59609;52.430;4.668;2023-02-20T14:03:33;102097.56;;;10.33;100.00
71778;BME280;59609;52.430;4.668;2023-02-20T14:08:26;102095.66;;;10.55;100.00
71778;BME280;59609;52.430;4.668;2023-02-20T14:10:53;102087.38;;;10.55;100.00
71778;BME280;59609;52.430;4.668;2023-02-20T14:13:21;102095.69;;;10.34;100.00
71778;BME280;59609;52.430;4.668;2023-02-20T14:15:54;102092.84;;;10.45;100.00
71778;BME280;59609;52.430;4.668;2023-02-20T14:18:29;102077.25;;;10.34;100.00
71778;BME280;59609;52.430;4.668;2023-02-20T14:21:03;102086.38;;;10.35;100.00
71778;BME280;59609;52.430;4.668;2023-02-20T14:23:30;102076.91;;;10.28;100.00
71778;BME280;59609;52.430;4.668;2023-02-20T14:26:00;102074.03;;;10.29;100.00
71778;BME280;59609;52.430;4.668;2023-02-20T14:28:28;102077.59;;;10.41;100.00
71778;BME280;59609;52.430;4.668;2023-02-20T14:33:58;102083.50;;;10.16;100.00
71778;BME280;59609;52.430;4.668;2023-02-20T14:36:35;102083.84;;;10.43;100.00
71778;BME280;59609;52.430;4.668;2023-02-20T14:39:16;102079.41;;;10.31;100.00
71778;BME280;59609;52.430;4.668;2023-02-20T14:41:58;102077.19;;;10.25;100.00
71778;BME280;59609;52.430;4.668;2023-02-20T14:44:24;102078.47;;;10.21;100.00